createdAt,value
2019-02-08T06:55:11.776Z,7.58
2019-02-08T06:56:11.745Z,7.57
2019-02-08T06:57:11.733Z,7.52
2019-02-08T06:58:11.724Z,7.50
2019-02-08T06:59:22.464Z,7.53
2019-02-08T07:00:11.728Z,7.57
2019-02-08T07:01:11.692Z,7.57
2019-02-08T07:02:11.685Z,7.53
2019-02-08T07:03:11.710Z,7.55
2019-02-08T07:04:11.662Z,7.48
2019-02-08T07:05:11.695Z,7.49
2019-02-08T07:06:11.639Z,7.45
2019-02-08T07:07:11.634Z,7.42
2019-02-08T07:08:11.627Z,7.40
2019-02-08T07:09:11.611Z,7.42
2019-02-08T07:10:11.622Z,7.35
2019-02-08T07:11:11.608Z,7.42
2019-02-08T07:12:11.579Z,7.42
2019-02-08T07:13:11.575Z,7.40
2019-02-08T07:14:11.555Z,7.42
2019-02-08T07:15:11.657Z,7.40
2019-02-08T07:16:11.571Z,7.37
2019-02-08T07:17:11.596Z,7.34
2019-02-08T07:18:11.521Z,7.35
2019-02-08T07:19:11.508Z,7.32
2019-02-08T07:20:11.519Z,7.35
2019-02-08T07:21:11.489Z,7.32
2019-02-08T07:22:11.482Z,7.37
2019-02-08T07:23:11.473Z,7.37
2019-02-08T07:24:11.455Z,7.40
2019-02-08T07:25:18.175Z,7.42
2019-02-08T07:26:12.452Z,7.43
2019-02-08T07:27:11.424Z,7.43
2019-02-08T07:28:11.414Z,7.37
2019-02-08T07:29:11.410Z,7.42
2019-02-08T07:30:11.434Z,7.37
2019-02-08T07:31:11.382Z,7.32
2019-02-08T07:32:11.370Z,7.35
2019-02-08T07:33:11.368Z,7.39
2019-02-08T07:34:11.351Z,7.42
2019-02-08T07:35:11.461Z,7.42
2019-02-08T07:36:11.333Z,7.42
2019-02-08T07:37:11.318Z,7.42
2019-02-08T07:38:11.350Z,7.45
2019-02-08T07:39:11.299Z,7.42
2019-02-08T07:40:11.286Z,7.42
2019-02-08T07:41:11.303Z,7.35
2019-02-08T07:42:11.273Z,7.40
2019-02-08T07:43:11.254Z,7.40
2019-02-08T07:44:11.244Z,7.52
2019-02-08T07:45:11.236Z,7.49
2019-02-08T07:46:11.531Z,7.53
2019-02-08T07:47:11.233Z,7.46
2019-02-08T07:48:11.203Z,7.60
2019-02-08T07:49:11.192Z,7.49
2019-02-08T07:50:11.192Z,7.52
2019-02-08T07:51:11.198Z,7.61
2019-02-08T07:52:11.176Z,7.55
2019-02-08T07:53:11.155Z,7.52
2019-02-08T07:54:11.141Z,7.55
2019-02-08T07:55:11.146Z,7.60
2019-02-08T07:56:11.146Z,7.64
2019-02-08T07:57:11.109Z,7.68
2019-02-08T07:58:11.113Z,7.69
2019-02-08T07:59:11.117Z,7.69
2019-02-08T08:00:11.085Z,7.64
2019-02-08T08:01:11.104Z,7.68
2019-02-08T08:02:11.064Z,7.69
2019-02-08T08:03:11.047Z,7.64
2019-02-08T08:04:11.043Z,7.74
2019-02-08T08:05:11.036Z,7.68
2019-02-08T08:06:11.059Z,7.71
2019-02-08T08:07:11.008Z,7.80
2019-02-08T08:08:11.007Z,7.82
2019-02-08T08:09:10.987Z,7.82
2019-02-08T08:10:10.976Z,7.85
2019-02-08T08:11:11.005Z,7.82
2019-02-08T08:12:10.967Z,7.80
2019-02-08T08:13:10.944Z,7.77
2019-02-08T08:14:10.933Z,7.80
2019-02-08T08:15:10.938Z,7.82
2019-02-08T08:16:10.931Z,7.87
2019-02-08T08:17:10.903Z,7.89
2019-02-08T08:18:10.904Z,7.90
2019-02-08T08:19:10.880Z,7.82
2019-02-08T08:20:10.873Z,7.80
2019-02-08T08:21:10.886Z,7.80
2019-02-08T08:22:10.854Z,7.82
2019-02-08T08:23:10.842Z,7.79
2019-02-08T08:24:10.837Z,7.80
2019-02-08T08:25:10.818Z,7.80
2019-02-08T08:26:10.827Z,7.80
2019-02-08T08:27:10.794Z,7.87
2019-02-08T08:28:10.795Z,7.90
2019-02-08T08:29:10.776Z,7.97
2019-02-08T08:30:10.776Z,7.95
2019-02-08T08:31:10.772Z,7.90
2019-02-08T08:32:10.742Z,7.89
2019-02-08T08:33:10.733Z,7.86
2019-02-08T08:34:10.720Z,7.87
2019-02-08T08:35:10.720Z,7.93
2019-02-08T08:36:10.726Z,7.90
2019-02-08T08:37:10.689Z,7.90
2019-02-08T08:38:10.686Z,7.95
2019-02-08T08:39:10.674Z,7.92
2019-02-08T08:40:10.658Z,7.97
2019-02-08T08:41:10.684Z,7.92
2019-02-08T08:42:10.652Z,7.98
2019-02-08T08:43:10.634Z,8.01
2019-02-08T08:44:10.616Z,8.00
2019-02-08T08:45:10.614Z,7.95
2019-02-08T08:46:10.619Z,8.00
2019-02-08T08:47:10.596Z,7.98
2019-02-08T08:48:10.574Z,8.00
2019-02-08T08:49:10.564Z,8.00
2019-02-08T08:50:10.554Z,7.98
2019-02-08T08:51:10.567Z,8.07
2019-02-08T08:52:10.538Z,8.02
2019-02-08T08:53:10.522Z,8.05
2019-02-08T08:54:10.520Z,8.07
2019-02-08T08:55:10.502Z,8.08
2019-02-08T08:56:10.511Z,8.05
2019-02-08T08:57:10.478Z,8.07
2019-02-08T08:58:10.480Z,8.16
2019-02-08T08:59:10.457Z,8.16
2019-02-08T09:00:10.470Z,8.20
2019-02-08T09:01:10.482Z,8.19
2019-02-08T09:02:10.429Z,8.20
2019-02-08T09:03:10.416Z,8.22
2019-02-08T09:04:10.403Z,8.26
2019-02-08T09:05:10.393Z,8.20
2019-02-08T09:06:10.416Z,8.20
2019-02-08T09:07:16.137Z,8.16
2019-02-08T09:08:11.359Z,8.20
2019-02-08T09:09:10.366Z,8.20
2019-02-08T09:10:10.343Z,8.20
2019-02-08T09:11:10.356Z,8.19
2019-02-08T09:12:10.319Z,8.18
2019-02-08T09:13:14.825Z,8.20
2019-02-08T09:14:10.309Z,8.23
2019-02-08T09:15:10.287Z,8.15
2019-02-08T09:16:10.320Z,8.25
2019-02-08T09:17:10.272Z,8.25
2019-02-08T09:18:10.258Z,8.30
2019-02-08T09:19:10.265Z,8.26
2019-02-08T09:20:10.244Z,8.25
2019-02-08T09:21:10.236Z,8.22
2019-02-08T09:22:10.240Z,8.23
2019-02-08T09:23:10.204Z,8.23
2019-02-08T09:24:10.213Z,8.23
2019-02-08T09:25:10.191Z,8.37
2019-02-08T09:26:10.171Z,8.36
2019-02-08T09:27:10.182Z,8.44
2019-02-08T09:28:10.164Z,8.48
2019-02-08T09:29:10.139Z,8.48
2019-02-08T09:30:10.155Z,8.37
2019-02-08T09:31:10.117Z,8.45
2019-02-08T09:32:10.122Z,8.53
2019-02-08T09:33:10.095Z,8.56
2019-02-08T09:34:10.088Z,8.56
2019-02-08T09:35:10.078Z,8.58
2019-02-08T09:36:10.065Z,8.58
2019-02-08T09:37:10.073Z,8.58
2019-02-08T09:38:10.039Z,8.65
2019-02-08T09:39:10.058Z,8.71
2019-02-08T09:40:11.629Z,8.63
2019-02-08T09:41:10.013Z,8.66
2019-02-08T09:42:10.018Z,8.71
2019-02-08T09:43:09.989Z,8.71
2019-02-08T09:44:09.982Z,8.73
2019-02-08T09:45:09.965Z,8.68
2019-02-08T09:46:09.953Z,8.74
2019-02-08T09:47:09.969Z,8.81
2019-02-08T09:48:09.932Z,8.76
2019-02-08T09:49:09.924Z,8.79
2019-02-08T09:50:09.921Z,8.70
2019-02-08T09:51:09.901Z,8.84
2019-02-08T09:52:09.914Z,8.76
2019-02-08T09:53:09.884Z,8.84
2019-02-08T09:54:09.873Z,8.95
2019-02-08T09:55:09.858Z,8.91
2019-02-08T09:56:09.853Z,8.91
2019-02-08T09:57:09.860Z,8.87
2019-02-08T09:58:09.844Z,8.87
2019-02-08T09:59:09.820Z,8.87
2019-02-08T10:00:09.808Z,8.91
2019-02-08T10:01:09.795Z,8.81
2019-02-08T10:02:09.804Z,8.81
2019-02-08T10:03:09.774Z,8.94
2019-02-08T10:04:09.763Z,8.81
2019-02-08T10:05:09.759Z,8.86
2019-02-08T10:06:09.744Z,8.89
2019-02-08T10:07:09.751Z,8.87
2019-02-08T10:08:09.728Z,8.89
2019-02-08T10:09:09.719Z,8.91
2019-02-08T10:10:09.697Z,8.96
2019-02-08T10:11:09.692Z,8.96
2019-02-08T10:12:09.697Z,8.86
2019-02-08T10:13:09.683Z,8.86
2019-02-08T10:14:09.653Z,8.81
2019-02-08T10:15:09.682Z,8.86
2019-02-08T10:16:09.635Z,8.84
2019-02-08T10:17:09.661Z,8.86
2019-02-08T10:18:09.611Z,8.83
2019-02-08T10:19:09.602Z,8.81
2019-02-08T10:20:09.592Z,8.83
2019-02-08T10:21:09.581Z,8.86
2019-02-08T10:22:09.590Z,8.86
2019-02-08T10:23:09.574Z,8.92
2019-02-08T10:24:09.549Z,8.94
2019-02-08T10:25:09.547Z,8.89
2019-02-08T10:26:09.526Z,8.91
2019-02-08T10:27:09.543Z,9.01
2019-02-08T10:28:09.505Z,8.91
2019-02-08T10:29:09.504Z,8.96
2019-02-08T10:30:09.482Z,8.99
2019-02-08T10:31:09.473Z,9.02
2019-02-08T10:32:09.489Z,9.08
2019-02-08T10:33:09.450Z,9.08
2019-02-08T10:34:09.442Z,9.13
2019-02-08T10:35:09.437Z,9.13
2019-02-08T10:36:09.429Z,9.13
2019-02-08T10:37:09.437Z,9.13
2019-02-08T10:38:09.396Z,9.20
2019-02-08T10:39:09.389Z,9.18
2019-02-08T10:40:09.378Z,9.23
2019-02-08T10:41:09.378Z,9.18
2019-02-08T10:42:09.387Z,9.18
2019-02-08T10:43:09.343Z,9.32
2019-02-08T10:44:09.331Z,9.29
2019-02-08T10:45:09.320Z,9.26
2019-02-08T10:46:09.320Z,9.38
2019-02-08T10:47:09.321Z,9.38
2019-02-08T10:48:09.288Z,9.38
2019-02-08T10:49:09.306Z,9.36
2019-02-08T10:50:09.268Z,9.40
2019-02-08T10:51:09.254Z,9.50
2019-02-08T10:52:09.293Z,9.42
2019-02-08T10:53:09.234Z,9.43
2019-02-08T10:54:09.230Z,9.50
2019-02-08T10:55:09.321Z,9.47
2019-02-08T10:56:14.887Z,9.42
2019-02-08T10:57:10.311Z,9.53
2019-02-08T10:58:09.179Z,9.46
2019-02-08T10:59:09.171Z,9.40
2019-02-08T11:00:09.163Z,9.57
2019-02-08T11:01:09.148Z,9.60
2019-02-08T11:02:09.134Z,9.57
2019-02-08T11:03:09.144Z,9.66
2019-02-08T11:04:09.124Z,9.57
2019-02-08T11:05:09.101Z,9.66
2019-02-08T11:06:09.093Z,9.68
2019-02-08T11:07:09.101Z,9.65
2019-02-08T11:08:09.095Z,9.68
2019-02-08T11:09:09.100Z,9.61
2019-02-08T11:10:09.050Z,9.60
2019-02-08T11:11:09.039Z,9.66
2019-02-08T11:12:09.032Z,9.69
2019-02-08T11:13:09.046Z,9.72
2019-02-08T11:14:09.003Z,9.78
2019-02-08T11:15:08.993Z,9.75
2019-02-08T11:16:08.993Z,9.69
2019-02-08T11:17:08.983Z,9.66
2019-02-08T11:18:08.988Z,9.72
2019-02-08T11:19:08.951Z,9.79
2019-02-08T11:20:08.946Z,9.78
2019-02-08T11:21:08.933Z,9.76
2019-02-08T11:22:08.926Z,9.79
2019-02-08T11:23:08.931Z,9.83
2019-02-08T11:24:08.920Z,9.78
2019-02-08T11:25:08.887Z,9.81
2019-02-08T11:26:08.875Z,9.65
2019-02-08T11:27:08.869Z,9.79
2019-02-08T11:28:08.883Z,9.71
2019-02-08T11:29:08.843Z,9.76
2019-02-08T11:30:08.857Z,9.72
2019-02-08T11:31:08.821Z,9.79
2019-02-08T11:32:08.809Z,9.74
2019-02-08T11:33:08.893Z,9.89
2019-02-08T11:34:08.820Z,9.96
2019-02-08T11:35:08.778Z,9.93
2019-02-08T11:36:08.771Z,9.91
2019-02-08T11:37:08.756Z,9.83
2019-02-08T11:38:08.788Z,9.91
2019-02-08T11:39:08.738Z,9.90
2019-02-08T11:40:08.731Z,9.86
2019-02-08T11:41:08.713Z,9.79
2019-02-08T11:42:08.718Z,9.81
2019-02-08T11:43:08.716Z,9.83
2019-02-08T11:44:08.678Z,9.79
2019-02-08T11:45:08.673Z,9.86
2019-02-08T11:46:08.657Z,9.90
2019-02-08T11:47:08.649Z,9.93
2019-02-08T11:48:08.659Z,9.99
2019-02-08T11:49:08.623Z,10.02
2019-02-08T11:50:08.622Z,9.97
2019-02-08T11:51:08.609Z,9.90
2019-02-08T11:52:08.593Z,9.90
2019-02-08T11:53:08.609Z,9.89
2019-02-08T11:54:08.579Z,9.93
2019-02-08T11:55:08.561Z,9.91
2019-02-08T11:56:08.550Z,9.91
2019-02-08T11:57:08.543Z,9.86
2019-02-08T11:58:08.555Z,9.90
2019-02-08T11:59:08.536Z,9.75
2019-02-08T12:00:08.513Z,9.86
2019-02-08T12:01:08.498Z,9.75
2019-02-08T12:02:08.487Z,9.74
2019-02-08T12:03:08.498Z,9.71
2019-02-08T12:04:08.486Z,9.75
2019-02-08T12:05:08.453Z,9.81
2019-02-08T12:06:08.448Z,9.76
2019-02-08T12:07:08.442Z,9.79
2019-02-08T12:08:08.448Z,9.78
2019-02-08T12:09:08.408Z,9.76
2019-02-08T12:10:08.402Z,9.71
2019-02-08T12:11:08.400Z,9.72
2019-02-08T12:12:08.386Z,9.64
2019-02-08T12:13:08.389Z,9.65
2019-02-08T12:14:08.360Z,9.68
2019-02-08T12:15:08.343Z,9.68
2019-02-08T12:16:08.335Z,9.66
2019-02-08T12:17:08.324Z,9.57
2019-02-08T12:18:08.331Z,9.64
2019-02-08T12:19:08.312Z,9.68
2019-02-08T12:20:08.335Z,9.66
2019-02-08T12:21:08.280Z,9.58
2019-02-08T12:22:08.266Z,9.54
2019-02-08T12:23:08.276Z,9.57
2019-02-08T12:24:08.244Z,9.57
2019-02-08T12:25:08.235Z,9.57
2019-02-08T12:26:08.231Z,9.51
2019-02-08T12:27:08.218Z,9.48
2019-02-08T12:28:08.224Z,9.53
2019-02-08T12:29:08.200Z,9.53
2019-02-08T12:30:08.180Z,9.51
2019-02-08T12:31:08.171Z,9.43
2019-02-08T12:32:08.163Z,9.36
2019-02-08T12:33:08.197Z,9.32
2019-02-08T12:34:08.170Z,9.33
2019-02-08T12:35:08.156Z,9.33
2019-02-08T12:36:08.155Z,9.29
2019-02-08T12:37:08.104Z,9.35
2019-02-08T12:38:08.094Z,9.29
2019-02-08T12:39:08.107Z,9.36
2019-02-08T12:40:08.073Z,9.21
2019-02-08T12:41:09.890Z,9.35
2019-02-08T12:42:08.050Z,9.38
2019-02-08T12:43:08.039Z,9.23
2019-02-08T12:44:08.051Z,9.20
2019-02-08T12:45:08.016Z,9.15
2019-02-08T12:46:08.006Z,9.20
2019-02-08T12:47:07.997Z,9.20
2019-02-08T12:48:07.986Z,9.21
2019-02-08T12:49:08.016Z,9.11
2019-02-08T12:50:07.999Z,9.15
2019-02-08T12:51:07.954Z,9.15
2019-02-08T12:52:07.945Z,9.10
2019-02-08T12:53:07.932Z,9.11
2019-02-08T12:54:07.938Z,9.04
2019-02-08T12:55:07.908Z,9.02
2019-02-08T12:56:07.913Z,9.04
2019-02-08T12:57:07.887Z,9.02
2019-02-08T12:58:07.883Z,8.98
2019-02-08T12:59:07.885Z,9.08
2019-02-08T13:00:07.857Z,8.99
2019-02-08T13:01:07.848Z,9.11
2019-02-08T13:02:07.831Z,8.98
2019-02-08T13:03:07.822Z,8.99
2019-02-08T13:04:07.832Z,8.96
2019-02-08T13:05:07.802Z,8.96
2019-02-08T13:06:07.809Z,8.99
2019-02-08T13:07:07.782Z,8.98
2019-02-08T13:08:07.777Z,8.98
2019-02-08T13:09:07.778Z,8.94
2019-02-08T13:10:07.748Z,8.98
2019-02-08T13:11:07.747Z,9.01
2019-02-08T13:12:07.757Z,9.01
2019-02-08T13:13:07.712Z,8.96
2019-02-08T13:14:07.727Z,9.01
2019-02-08T13:15:07.691Z,8.96
2019-02-08T13:16:07.694Z,9.08
2019-02-08T13:17:07.701Z,8.98
2019-02-08T13:18:07.656Z,9.04
2019-02-08T13:19:07.681Z,8.86
2019-02-08T13:20:07.665Z,8.99
2019-02-08T13:21:07.633Z,9.01
2019-02-08T13:22:07.615Z,9.05
2019-02-08T13:23:07.606Z,9.13
2019-02-08T13:24:07.616Z,9.01
2019-02-08T13:25:07.585Z,8.96
2019-02-08T13:26:07.598Z,8.96
2019-02-08T13:27:07.563Z,8.96
2019-02-08T13:28:07.557Z,9.04
2019-02-08T13:29:07.568Z,8.96
2019-02-08T13:30:07.528Z,8.99
2019-02-08T13:31:07.526Z,8.98
2019-02-08T13:32:07.510Z,9.01
2019-02-08T13:33:07.506Z,9.10
2019-02-08T13:34:07.508Z,8.96
2019-02-08T13:35:08.949Z,8.99
2019-02-08T13:36:07.464Z,9.04
2019-02-08T13:37:07.454Z,8.95
2019-02-08T13:38:07.447Z,8.99
2019-02-08T13:39:07.463Z,8.99
2019-02-08T13:40:07.419Z,8.98
2019-02-08T13:41:07.415Z,8.94
2019-02-08T13:42:07.396Z,8.94
2019-02-08T13:43:07.390Z,8.98
2019-02-08T13:44:07.397Z,8.99
2019-02-08T13:45:07.392Z,9.04
2019-02-08T13:46:07.356Z,8.95
2019-02-08T13:47:07.343Z,8.99
2019-02-08T13:48:07.331Z,8.96
2019-02-08T13:49:07.356Z,8.99
2019-02-08T13:50:07.318Z,8.95
2019-02-08T13:51:07.305Z,8.98
2019-02-08T13:52:07.290Z,9.02
2019-02-08T13:53:07.291Z,8.94
2019-02-08T13:54:07.287Z,8.98
2019-02-08T13:55:07.255Z,9.01
2019-02-08T13:56:07.246Z,8.89
2019-02-08T13:57:07.235Z,9.04
2019-02-08T13:58:07.226Z,8.99
2019-02-08T13:59:07.240Z,9.11
2019-02-08T14:00:07.204Z,9.04
2019-02-08T14:01:07.192Z,8.99
2019-02-08T14:02:07.185Z,8.96
2019-02-08T14:03:07.173Z,8.99
2019-02-08T14:04:07.183Z,9.08
2019-02-08T14:05:07.158Z,9.04
2019-02-08T14:06:07.385Z,9.02
2019-02-08T14:07:07.308Z,8.99
2019-02-08T14:08:07.144Z,9.05
2019-02-08T14:09:07.156Z,9.04
2019-02-08T14:10:09.441Z,9.05
2019-02-08T14:11:07.084Z,9.02
2019-02-08T14:12:07.070Z,8.99
2019-02-08T14:13:07.067Z,9.08
2019-02-08T14:14:07.139Z,9.10
2019-02-08T14:15:07.041Z,9.04
2019-02-08T14:16:07.044Z,9.04
2019-02-08T14:17:07.021Z,8.98
2019-02-08T14:18:07.014Z,9.02
2019-02-08T14:19:07.001Z,9.08
2019-02-08T14:20:07.018Z,9.11
2019-02-08T14:21:06.986Z,9.28
2019-02-08T14:22:07.040Z,9.15
2019-02-08T14:23:06.967Z,9.15
2019-02-08T14:24:06.941Z,9.20
2019-02-08T14:25:07.015Z,9.26
2019-02-08T14:26:06.926Z,9.28
2019-02-08T14:27:08.486Z,9.20
2019-02-08T14:28:06.908Z,9.18
2019-02-08T14:29:06.893Z,9.21
2019-02-08T14:30:06.901Z,9.24
2019-02-08T14:31:06.891Z,9.26
2019-02-08T14:32:06.854Z,9.26
2019-02-08T14:33:06.845Z,9.35
2019-02-08T14:34:06.841Z,9.29
2019-02-08T14:35:06.851Z,9.31
2019-02-08T14:36:06.818Z,9.33
2019-02-08T14:37:06.815Z,9.32
2019-02-08T14:38:06.790Z,9.43
2019-02-08T14:39:06.778Z,9.43
2019-02-08T14:40:06.798Z,9.36
2019-02-08T14:41:06.768Z,9.33
2019-02-08T14:42:06.748Z,9.29
2019-02-08T14:43:06.749Z,9.29
2019-02-08T14:44:06.751Z,9.43
2019-02-08T14:45:06.771Z,9.36
2019-02-08T14:46:06.739Z,9.33
2019-02-08T14:47:06.741Z,9.35
2019-02-08T14:48:06.757Z,9.32
2019-02-08T14:49:06.669Z,9.29
2019-02-08T14:50:06.732Z,9.35
2019-02-08T14:51:06.672Z,9.32
2019-02-08T14:52:06.752Z,9.20
2019-02-08T14:53:06.629Z,9.29
2019-02-08T14:54:06.616Z,9.23
2019-02-08T14:55:06.625Z,9.24
2019-02-08T14:56:06.594Z,9.15
2019-02-08T14:57:06.583Z,9.18
2019-02-08T14:58:06.573Z,9.14
2019-02-08T14:59:06.578Z,9.20
2019-02-08T15:00:06.581Z,9.21
2019-02-08T15:01:06.543Z,9.26
2019-02-08T15:02:06.531Z,9.18
2019-02-08T15:03:06.521Z,9.28
2019-02-08T15:04:07.751Z,9.21
2019-02-08T15:05:06.525Z,9.31
2019-02-08T15:06:06.490Z,9.28
2019-02-08T15:07:06.480Z,9.31
2019-02-08T15:08:06.467Z,9.32
2019-02-08T15:09:06.453Z,9.29
2019-02-08T15:10:06.471Z,9.28
2019-02-08T15:11:06.444Z,9.32
2019-02-08T15:12:06.425Z,9.32
2019-02-08T15:13:06.408Z,9.29
2019-02-08T15:14:06.409Z,9.18
2019-02-08T15:15:06.408Z,9.23
2019-02-08T15:16:06.379Z,9.21
2019-02-08T15:17:06.367Z,9.21
2019-02-08T15:18:06.357Z,9.23
2019-02-08T15:19:06.344Z,9.17
2019-02-08T15:20:06.353Z,9.26
2019-02-08T15:21:06.324Z,9.29
2019-02-08T15:22:06.314Z,9.14
2019-02-08T15:23:06.312Z,9.20
2019-02-08T15:24:06.294Z,9.20
2019-02-08T15:25:06.308Z,9.24
2019-02-08T15:26:06.274Z,9.18
2019-02-08T15:27:06.259Z,9.23
2019-02-08T15:28:06.250Z,9.21
2019-02-08T15:29:06.236Z,9.21
2019-02-08T15:30:06.246Z,9.18
2019-02-08T15:31:06.214Z,9.31
2019-02-08T15:32:06.208Z,9.17
2019-02-08T15:33:06.196Z,9.33
2019-02-08T15:34:06.181Z,9.17
2019-02-08T15:35:06.198Z,9.17
2019-02-08T15:36:06.165Z,9.24
2019-02-08T15:37:06.149Z,9.18
2019-02-08T15:38:06.139Z,9.21
2019-02-08T15:39:06.135Z,9.20
2019-02-08T15:40:06.161Z,9.20
2019-02-08T15:41:06.129Z,9.18
2019-02-08T15:42:06.117Z,9.23
2019-02-08T15:43:06.084Z,9.26
2019-02-08T15:44:06.073Z,9.18
2019-02-08T15:45:06.097Z,9.28
2019-02-08T15:46:06.060Z,9.23
2019-02-08T15:47:06.054Z,9.33
2019-02-08T15:48:06.029Z,9.24
2019-02-08T15:49:06.022Z,9.29
2019-02-08T15:50:06.029Z,9.20
2019-02-08T15:51:06.009Z,9.21
2019-02-08T15:52:05.988Z,9.26
2019-02-08T15:53:05.979Z,9.28
2019-02-08T15:54:05.985Z,9.24
2019-02-08T15:55:05.981Z,9.21
2019-02-08T15:56:05.945Z,9.26
2019-02-08T15:57:05.944Z,9.20
2019-02-08T15:58:05.932Z,9.24
2019-02-08T15:59:05.914Z,9.18
2019-02-08T16:00:05.917Z,9.32
2019-02-08T16:01:05.923Z,9.26
2019-02-08T16:02:05.877Z,9.23
2019-02-08T16:03:05.867Z,9.17
2019-02-08T16:04:05.864Z,9.23
2019-02-08T16:05:05.845Z,9.23
2019-02-08T16:06:05.854Z,9.26
2019-02-08T16:07:05.825Z,9.24
2019-02-08T16:08:05.812Z,9.28
2019-02-08T16:09:05.807Z,9.11
2019-02-08T16:10:05.805Z,9.15
2019-02-08T16:11:05.809Z,9.20
2019-02-08T16:12:05.769Z,9.11
2019-02-08T16:13:05.758Z,9.17
2019-02-08T16:14:05.746Z,9.17
2019-02-08T16:15:05.736Z,9.20
2019-02-08T16:16:05.755Z,9.20
2019-02-08T16:17:05.744Z,9.15
2019-02-08T16:18:05.711Z,9.20
2019-02-08T16:19:05.692Z,9.17
2019-02-08T16:20:05.689Z,9.21
2019-02-08T16:21:05.698Z,9.20
2019-02-08T16:22:05.665Z,9.28
2019-02-08T16:23:05.655Z,9.15
2019-02-08T16:24:05.644Z,9.15
2019-02-08T16:25:05.628Z,9.18
2019-02-08T16:26:05.659Z,9.28
2019-02-08T16:27:05.611Z,9.31
2019-02-08T16:28:05.602Z,9.20
2019-02-08T16:29:05.615Z,9.21
2019-02-08T16:30:05.575Z,9.18
2019-02-08T16:31:05.587Z,9.21
2019-02-08T16:32:05.551Z,9.32
2019-02-08T16:33:05.542Z,9.21
2019-02-08T16:34:05.541Z,9.35
2019-02-08T16:35:05.532Z,9.21
2019-02-08T16:36:05.548Z,9.15
2019-02-08T16:37:05.500Z,9.24
2019-02-08T16:38:05.489Z,9.28
2019-02-08T16:39:05.481Z,9.26
2019-02-08T16:40:05.467Z,9.33
2019-02-08T16:41:05.476Z,9.23
2019-02-08T16:42:05.453Z,9.31
2019-02-08T16:43:05.437Z,9.36
2019-02-08T16:44:05.425Z,9.33
2019-02-08T16:45:05.411Z,9.32
2019-02-08T16:46:05.428Z,9.29
2019-02-08T16:47:05.389Z,9.32
2019-02-08T16:48:05.381Z,9.29
2019-02-08T16:49:05.400Z,9.39
2019-02-08T16:50:05.360Z,9.32
2019-02-08T16:51:05.381Z,9.38
2019-02-08T16:52:05.346Z,9.35
2019-02-08T16:53:05.341Z,9.36
2019-02-08T16:54:05.322Z,9.35
2019-02-08T16:55:05.309Z,9.33
2019-02-08T16:56:05.320Z,9.32
2019-02-08T16:57:05.288Z,9.38
2019-02-08T16:58:05.278Z,9.38
2019-02-08T16:59:05.259Z,9.33
2019-02-08T17:00:05.257Z,9.47
2019-02-08T17:01:05.259Z,9.51
2019-02-08T17:02:05.229Z,9.42
2019-02-08T17:03:05.234Z,9.43
2019-02-08T17:04:05.212Z,9.36
2019-02-08T17:05:05.195Z,9.42
2019-02-08T17:06:05.228Z,9.40
2019-02-08T17:07:05.181Z,9.43
2019-02-08T17:08:05.165Z,9.48
2019-02-08T17:09:05.157Z,9.46
2019-02-08T17:10:05.154Z,9.43
2019-02-08T17:11:05.154Z,9.48
2019-02-08T17:12:05.129Z,9.42
2019-02-08T17:13:06.037Z,9.47
2019-02-08T17:14:05.098Z,9.51
2019-02-08T17:15:05.098Z,9.51
2019-02-08T17:16:05.115Z,9.43
2019-02-08T17:17:05.065Z,9.40
2019-02-08T17:18:05.053Z,9.57
2019-02-08T17:19:05.044Z,9.56
2019-02-08T17:20:05.037Z,9.43
2019-02-08T17:21:05.060Z,9.51
2019-02-08T17:22:05.027Z,9.53
2019-02-08T17:23:05.005Z,9.54
2019-02-08T17:24:04.987Z,9.54
2019-02-08T17:25:04.980Z,9.56
2019-02-08T17:26:04.990Z,9.54
2019-02-08T17:27:04.955Z,9.57
2019-02-08T17:28:04.952Z,9.64
2019-02-08T17:29:04.938Z,9.65
2019-02-08T17:30:04.941Z,9.68
2019-02-08T17:31:04.936Z,9.65
2019-02-08T17:32:04.913Z,9.58
2019-02-08T17:33:04.891Z,9.57
2019-02-08T17:34:04.896Z,9.57
2019-02-08T17:35:04.900Z,9.65
2019-02-08T17:36:04.901Z,9.56
2019-02-08T17:37:04.847Z,9.58
2019-02-08T17:38:04.843Z,9.58
2019-02-08T17:39:04.836Z,9.57
2019-02-08T17:40:04.884Z,9.51
2019-02-08T17:41:04.803Z,9.58
2019-02-08T17:42:04.812Z,9.51
2019-02-08T17:43:04.785Z,9.54
2019-02-08T17:44:04.775Z,9.57
2019-02-08T17:45:04.772Z,9.48
2019-02-08T17:46:04.816Z,9.50
2019-02-08T17:47:04.792Z,9.50
2019-02-08T17:48:04.727Z,9.43
2019-02-08T17:49:04.717Z,9.50
2019-02-08T17:50:04.707Z,9.48
2019-02-08T17:51:04.702Z,9.51
2019-02-08T17:52:05.071Z,9.47
2019-02-08T17:53:04.719Z,9.42
2019-02-08T17:54:05.551Z,9.39
2019-02-08T17:55:04.730Z,9.42
2019-02-08T17:56:04.645Z,9.46
2019-02-08T17:57:06.055Z,9.40
2019-02-08T17:58:04.620Z,9.46
2019-02-08T17:59:04.610Z,9.50
2019-02-08T18:00:04.614Z,9.42
2019-02-08T18:01:04.619Z,9.54
2019-02-08T18:02:04.612Z,9.56
2019-02-08T18:03:04.570Z,9.57
2019-02-08T18:04:04.554Z,9.51
2019-02-08T18:05:04.545Z,9.54
2019-02-08T18:06:04.533Z,9.57
2019-02-08T18:07:04.572Z,9.56
2019-02-08T18:08:04.516Z,9.51
2019-02-08T18:09:04.504Z,9.58
2019-02-08T18:10:04.490Z,9.54
2019-02-08T18:11:04.495Z,9.65
2019-02-08T18:12:04.530Z,9.66
2019-02-08T18:13:04.527Z,9.65
2019-02-08T18:14:04.450Z,9.60
2019-02-08T18:15:04.449Z,9.64
2019-02-08T18:16:04.459Z,9.61
2019-02-08T18:17:04.480Z,9.68
2019-02-08T18:18:04.461Z,9.64
2019-02-08T18:19:04.444Z,9.68
2019-02-08T18:20:04.398Z,9.66
2019-02-08T18:21:04.441Z,9.69
2019-02-08T18:22:04.443Z,9.69
2019-02-08T18:23:04.349Z,9.69
2019-02-08T18:24:04.337Z,9.68
2019-02-08T18:25:04.326Z,9.65
2019-02-08T18:26:04.330Z,9.68
2019-02-08T18:27:04.340Z,9.66
2019-02-08T18:28:10.796Z,9.68
2019-02-08T18:29:05.289Z,9.65
2019-02-08T18:30:04.278Z,9.74
2019-02-08T18:31:04.275Z,9.71
2019-02-08T18:32:04.272Z,9.68
2019-02-08T18:33:04.247Z,9.65
2019-02-08T18:34:04.263Z,9.66
2019-02-08T18:35:04.218Z,9.68
2019-02-08T18:36:04.232Z,9.68
2019-02-08T18:37:04.221Z,9.61
2019-02-08T18:38:04.200Z,9.68
2019-02-08T18:39:04.193Z,9.72
2019-02-08T18:40:04.167Z,9.66
2019-02-08T18:41:04.155Z,9.69
2019-02-08T18:42:04.183Z,9.66
2019-02-08T18:43:04.140Z,9.65
2019-02-08T18:44:04.145Z,9.68
2019-02-08T18:45:04.119Z,9.61
2019-02-08T18:46:04.100Z,9.64
2019-02-08T18:47:04.139Z,9.69
2019-02-08T18:48:04.082Z,9.65
2019-02-08T18:49:04.069Z,9.65
2019-02-08T18:50:04.069Z,9.68
2019-02-08T18:51:04.062Z,9.65
2019-02-08T18:52:04.063Z,9.68
2019-02-08T18:53:04.030Z,9.66
2019-02-08T18:54:04.025Z,9.61
2019-02-08T18:55:04.002Z,9.69
2019-02-08T18:56:03.998Z,9.69
2019-02-08T18:57:04.019Z,9.66
2019-02-08T18:58:03.999Z,9.68
2019-02-08T18:59:04.012Z,9.74
2019-02-08T19:00:03.973Z,9.61
2019-02-08T19:01:03.938Z,9.72
2019-02-08T19:02:03.955Z,9.65
2019-02-08T19:03:03.931Z,9.66
2019-02-08T19:04:03.908Z,9.72
2019-02-08T19:05:03.896Z,9.71
2019-02-08T19:06:03.901Z,9.72
2019-02-08T19:07:03.905Z,9.75
2019-02-08T19:08:03.872Z,9.76
2019-02-08T19:09:03.861Z,9.69
2019-02-08T19:10:03.858Z,9.64
2019-02-08T19:11:03.843Z,9.75
2019-02-08T19:12:03.838Z,9.71
2019-02-08T19:13:03.837Z,9.69
2019-02-08T19:14:03.808Z,9.72
2019-02-08T19:15:03.808Z,9.68
2019-02-08T19:16:03.777Z,9.68
2019-02-08T19:17:03.789Z,9.68
2019-02-08T19:18:03.771Z,9.64
2019-02-08T19:19:03.762Z,9.65
2019-02-08T19:20:03.745Z,9.69
2019-02-08T19:21:03.729Z,9.65
2019-02-08T19:22:03.784Z,9.61
2019-02-08T19:23:03.720Z,9.74
2019-02-08T19:24:03.699Z,9.72
2019-02-08T19:25:03.701Z,9.68
2019-02-08T19:26:03.751Z,9.72
2019-02-08T19:27:03.705Z,9.68
2019-02-08T19:28:03.703Z,9.65
2019-02-08T19:29:03.682Z,9.69
2019-02-08T19:30:03.631Z,9.65
2019-02-08T19:31:03.613Z,9.65
2019-02-08T19:32:03.639Z,9.64
2019-02-08T19:33:03.626Z,9.60
2019-02-08T19:34:03.590Z,9.68
2019-02-08T19:35:03.572Z,9.65
2019-02-08T19:36:03.563Z,9.60
2019-02-08T19:37:03.547Z,9.53
2019-02-08T19:38:03.584Z,9.57
2019-02-08T19:39:03.554Z,9.43
2019-02-08T19:40:03.524Z,9.53
2019-02-08T19:41:03.510Z,9.56
2019-02-08T19:42:03.494Z,9.64
2019-02-08T19:43:03.510Z,9.53
2019-02-08T19:44:03.474Z,9.54
2019-02-08T19:45:03.481Z,9.57
2019-02-08T19:46:03.452Z,9.58
2019-02-08T19:47:03.492Z,9.48
2019-02-08T19:48:03.504Z,9.51
2019-02-08T19:49:03.432Z,9.56
2019-02-08T19:50:03.419Z,9.57
2019-02-08T19:51:03.408Z,9.51
2019-02-08T19:52:03.385Z,9.60
2019-02-08T19:53:03.408Z,9.54
2019-02-08T19:54:03.366Z,9.47
2019-02-08T19:55:03.378Z,9.51
2019-02-08T19:56:03.395Z,9.56
2019-02-08T19:57:03.398Z,9.51
2019-02-08T19:58:03.384Z,9.53
2019-02-08T19:59:03.319Z,9.56
2019-02-08T20:00:03.307Z,9.56
2019-02-08T20:01:03.294Z,9.56
2019-02-08T20:02:03.278Z,9.57
2019-02-08T20:03:03.302Z,9.48
2019-02-08T20:04:03.264Z,9.54
2019-02-08T20:05:03.253Z,9.46
2019-02-08T20:06:03.236Z,9.54
2019-02-08T20:07:03.233Z,9.54
2019-02-08T20:08:03.244Z,9.60
2019-02-08T20:09:03.204Z,9.60
2019-02-08T20:10:03.222Z,9.46
2019-02-08T20:11:03.229Z,9.54
2019-02-08T20:12:03.237Z,9.56
2019-02-08T20:13:03.345Z,9.43